Time;durP1;ratioP1;P1;durP2;ratioP2;P2;SDS_P1;SDS_P2;PMS_P1;PMS_P2;Temp;Humidity;BMP_temperature;BMP_pressure;BME280_temperature;BME280_humidity;BME280_pressure;Samples;Min_cycle;Max_cycle;Signal;HPM_P1;HPM_P2
2024/01/07 00:01:23;;;;;;;4.30;2.50;;;;;;;;;;5091426;28;20054;-68
2024/01/07 00:03:48;;;;;;;5.82;2.63;;;;;;;;;;5071738;28;20036;-69
2024/01/07 00:06:14;;;;;;;12.00;2.45;;;;;;;;;;5074917;28;20043;-68
2024/01/07 00:08:39;;;;;;;16.80;3.72;;;;;;;;;;5088776;28;20028;-71
2024/01/07 00:11:04;;;;;;;5.90;2.28;;;;;;;;;;5072809;28;20040;-70
2024/01/07 00:13:30;;;;;;;7.90;2.08;;;;;;;;;;5074421;28;20037;-70
2024/01/07 00:15:55;;;;;;;10.80;2.45;;;;;;;;;;5079468;28;20084;-69
2024/01/07 00:18:22;;;;;;;5.90;2.45;;;;;;;;;;5084926;28;20028;-69
2024/01/07 00:20:47;;;;;;;4.75;2.85;;;;;;;;;;5082204;28;20028;-70
2024/01/07 00:23:12;;;;;;;48.97;5.00;;;;;;;;;;5089290;28;20586;-69
2024/01/07 00:25:37;;;;;;;6.60;3.70;;;;;;;;;;5084125;28;20043;-70
2024/01/07 00:28:03;;;;;;;9.07;2.60;;;;;;;;;;5086945;28;20064;-70
2024/01/07 00:30:29;;;;;;;6.82;2.92;;;;;;;;;;5081738;28;20028;-67
2024/01/07 00:32:54;;;;;;;5.93;3.25;;;;;;;;;;5085494;28;20048;-67
2024/01/07 00:35:20;;;;;;;12.70;3.60;;;;;;;;;;5071686;28;20037;-69
2024/01/07 00:37:45;;;;;;;6.38;2.53;;;;;;;;;;5074910;28;20043;-67
2024/01/07 00:40:11;;;;;;;12.75;3.35;;;;;;;;;;5054394;28;20040;-67
2024/01/07 00:42:36;;;;;;;8.50;3.38;;;;;;;;;;5081756;28;20118;-66
2024/01/07 00:45:02;;;;;;;5.32;2.60;;;;;;;;;;5076382;28;20040;-68
2024/01/07 00:47:28;;;;;;;7.38;2.92;;;;;;;;;;5077998;28;20040;-66
2024/01/07 00:49:53;;;;;;;7.93;2.63;;;;;;;;;;5073465;28;20036;-66
2024/01/07 00:52:18;;;;;;;4.43;2.58;;;;;;;;;;5081473;28;20055;-66
2024/01/07 00:54:44;;;;;;;5.68;2.88;;;;;;;;;;5075617;28;20123;-67
2024/01/07 00:57:11;;;;;;;6.72;2.83;;;;;;;;;;5082088;28;20084;-69
2024/01/07 00:59:36;;;;;;;5.50;3.10;;;;;;;;;;5056660;28;20033;-68
2024/01/07 01:02:01;;;;;;;8.85;3.20;;;;;;;;;;5084616;28;20460;-68
2024/01/07 01:04:27;;;;;;;6.90;3.22;;;;;;;;;;5077841;28;20499;-70
2024/01/07 01:06:52;;;;;;;8.32;2.28;;;;;;;;;;5079647;28;20118;-67
2024/01/07 01:09:17;;;;;;;10.43;3.20;;;;;;;;;;5076329;28;20036;-67
2024/01/07 01:11:43;;;;;;;8.23;3.28;;;;;;;;;;5073961;28;20052;-68
2024/01/07 01:14:08;;;;;;;4.78;2.75;;;;;;;;;;5072313;28;20024;-67
2024/01/07 01:16:34;;;;;;;28.55;4.22;;;;;;;;;;5076950;28;20386;-68
2024/01/07 01:18:59;;;;;;;5.00;3.00;;;;;;;;;;5075669;28;20063;-67
2024/01/07 01:21:24;;;;;;;9.40;3.47;;;;;;;;;;5079130;28;20107;-67
2024/01/07 01:23:50;;;;;;;5.93;3.00;;;;;;;;;;5084662;28;20025;-68
2024/01/07 01:26:15;;;;;;;32.60;3.90;;;;;;;;;;5090982;28;20047;-68
2024/01/07 01:28:40;;;;;;;19.63;4.32;;;;;;;;;;5087467;28;20067;-68
2024/01/07 01:31:06;;;;;;;7.97;3.38;;;;;;;;;;5076477;28;20101;-67
2024/01/07 01:33:31;;;;;;;19.83;4.38;;;;;;;;;;5049598;28;20036;-68
2024/01/07 01:35:57;;;;;;;16.67;3.65;;;;;;;;;;5077272;28;20620;-68
2024/01/07 01:38:22;;;;;;;12.07;3.42;;;;;;;;;;5076027;28;20047;-68
2024/01/07 01:40:54;;;;;;;7.95;3.88;;;;;;;;;;5061061;28;20032;-67
2024/01/07 01:43:26;;;;;;;10.95;4.90;;;;;;;;;;5073178;28;20035;-68
2024/01/07 01:45:55;;;;;;;10.60;3.70;;;;;;;;;;5074962;28;20538;-68
2024/01/07 01:48:21;;;;;;;11.05;4.07;;;;;;;;;;5072858;28;20037;-68
2024/01/07 01:50:47;;;;;;;11.25;3.85;;;;;;;;;;5078071;28;20063;-68
2024/01/07 01:53:13;;;;;;;14.70;4.22;;;;;;;;;;5062897;28;20131;-68
2024/01/07 01:55:39;;;;;;;6.03;3.50;;;;;;;;;;5079317;28;20104;-69
2024/01/07 01:58:04;;;;;;;6.13;3.83;;;;;;;;;;5057783;28;20144;-68
2024/01/07 02:00:30;;;;;;;18.40;4.53;;;;;;;;;;5070630;28;20036;-68
2024/01/07 02:02:55;;;;;;;9.00;4.15;;;;;;;;;;5073656;28;20031;-67
2024/01/07 02:05:21;;;;;;;9.82;3.75;;;;;;;;;;5075139;28;20067;-68
2024/01/07 02:07:47;;;;;;;14.00;4.25;;;;;;;;;;5061705;28;20042;-67
2024/01/07 02:10:12;;;;;;;8.38;4.15;;;;;;;;;;5073335;28;20046;-68
2024/01/07 02:12:38;;;;;;;13.35;3.40;;;;;;;;;;5075981;28;20565;-70
2024/01/07 02:15:04;;;;;;;10.75;4.28;;;;;;;;;;5070294;28;20123;-69
2024/01/07 02:17:29;;;;;;;11.18;4.10;;;;;;;;;;5085589;28;20035;-69
2024/01/07 02:19:55;;;;;;;21.27;5.20;;;;;;;;;;5072614;28;20101;-69
2024/01/07 02:22:20;;;;;;;12.07;4.13;;;;;;;;;;5083763;28;20058;-69
2024/01/07 02:24:45;;;;;;;12.52;5.18;;;;;;;;;;5070492;28;20029;-69
2024/01/07 02:27:11;;;;;;;15.82;3.92;;;;;;;;;;5072862;28;20052;-69
2024/01/07 02:29:36;;;;;;;15.60;4.32;;;;;;;;;;5077017;28;20039;-69
2024/01/07 02:32:01;;;;;;;10.82;4.45;;;;;;;;;;5087970;28;20391;-67
2024/01/07 02:34:27;;;;;;;7.60;4.38;;;;;;;;;;5079538;28;20400;-68
2024/01/07 02:36:52;;;;;;;21.00;4.00;;;;;;;;;;5063074;28;20035;-67
2024/01/07 02:39:17;;;;;;;6.65;4.10;;;;;;;;;;5081532;28;20460;-67
2024/01/07 02:41:43;;;;;;;8.45;4.03;;;;;;;;;;5076063;28;20024;-67
2024/01/07 02:44:08;;;;;;;11.68;4.53;;;;;;;;;;5072752;28;20094;-68
2024/01/07 02:46:33;;;;;;;10.10;3.78;;;;;;;;;;5076890;28;20021;-67
2024/01/07 02:48:59;;;;;;;9.45;3.53;;;;;;;;;;5074044;28;20035;-68
2024/01/07 02:51:24;;;;;;;6.97;3.95;;;;;;;;;;5071312;28;20056;-68
2024/01/07 02:53:49;;;;;;;7.25;4.00;;;;;;;;;;5074732;28;20033;-67
2024/01/07 02:56:15;;;;;;;9.27;4.30;;;;;;;;;;5080868;28;20037;-67
2024/01/07 02:58:40;;;;;;;10.18;3.83;;;;;;;;;;5070905;28;20067;-68
2024/01/07 03:01:09;;;;;;;8.50;4.05;;;;;;;;;;5072999;28;20059;-67
2024/01/07 03:03:34;;;;;;;13.07;3.55;;;;;;;;;;5058369;28;20571;-69
2024/01/07 03:06:00;;;;;;;27.52;4.22;;;;;;;;;;5070075;28;20052;-67
2024/01/07 03:08:25;;;;;;;19.85;4.47;;;;;;;;;;5079818;28;20459;-69
2024/01/07 03:10:50;;;;;;;9.02;4.55;;;;;;;;;;5058562;28;20032;-68
2024/01/07 03:13:16;;;;;;;10.63;4.40;;;;;;;;;;5073231;28;20091;-67
2024/01/07 03:15:41;;;;;;;7.15;3.63;;;;;;;;;;5071085;28;20472;-67
2024/01/07 03:18:06;;;;;;;13.43;4.47;;;;;;;;;;5072772;28;20383;-68
2024/01/07 03:20:32;;;;;;;11.23;5.45;;;;;;;;;;5072780;28;20036;-69
2024/01/07 03:23:00;;;;;;;14.48;4.78;;;;;;;;;;5083062;28;20873;-67
2024/01/07 03:25:25;;;;;;;14.63;5.57;;;;;;;;;;5051356;28;20475;-68
2024/01/07 03:27:50;;;;;;;9.27;4.50;;;;;;;;;;5082002;28;20086;-67
2024/01/07 03:30:16;;;;;;;11.45;4.20;;;;;;;;;;5077815;28;20029;-67
2024/01/07 03:32:41;;;;;;;12.90;4.53;;;;;;;;;;5081676;28;20036;-68
2024/01/07 03:35:08;;;;;;;18.63;5.00;;;;;;;;;;5082906;28;20040;-68
2024/01/07 03:37:34;;;;;;;11.90;4.47;;;;;;;;;;5066260;28;20036;-68
2024/01/07 03:39:59;;;;;;;10.15;4.90;;;;;;;;;;5077586;28;20044;-69
2024/01/07 03:42:24;;;;;;;13.63;4.90;;;;;;;;;;5073787;28;20032;-67
2024/01/07 03:44:50;;;;;;;20.45;5.45;;;;;;;;;;5073851;28;20070;-67
2024/01/07 03:47:16;;;;;;;14.10;5.30;;;;;;;;;;5081893;28;20085;-68
2024/01/07 03:49:41;;;;;;;13.48;4.90;;;;;;;;;;5060808;28;20119;-68
2024/01/07 03:52:07;;;;;;;25.13;5.88;;;;;;;;;;5070886;28;20034;-68
2024/01/07 03:54:32;;;;;;;12.73;4.90;;;;;;;;;;5076069;28;20136;-67
2024/01/07 03:56:57;;;;;;;10.90;5.53;;;;;;;;;;5083242;28;20043;-68
2024/01/07 03:59:24;;;;;;;17.38;5.53;;;;;;;;;;5077029;28;20082;-67
2024/01/07 04:01:50;;;;;;;12.18;4.57;;;;;;;;;;5080903;28;20495;-68
2024/01/07 04:04:16;;;;;;;11.70;5.20;;;;;;;;;;5079943;28;20040;-68
2024/01/07 04:06:41;;;;;;;14.35;5.53;;;;;;;;;;5083972;28;20032;-68
2024/01/07 04:09:08;;;;;;;19.70;5.90;;;;;;;;;;5081376;28;20055;-67
2024/01/07 04:11:38;;;;;;;24.65;5.20;;;;;;;;;;5080387;28;20111;-68
2024/01/07 04:14:03;;;;;;;26.27;6.32;;;;;;;;;;5056829;28;20066;-67
2024/01/07 04:16:29;;;;;;;13.65;5.45;;;;;;;;;;5091562;28;20510;-67
2024/01/07 04:18:54;;;;;;;19.50;5.35;;;;;;;;;;5076518;28;20161;-68
2024/01/07 04:21:19;;;;;;;13.68;5.50;;;;;;;;;;5073904;28;20028;-68
2024/01/07 04:23:45;;;;;;;18.75;6.28;;;;;;;;;;5074436;28;20024;-69
2024/01/07 04:26:10;;;;;;;25.58;6.10;;;;;;;;;;5083148;28;20035;-68
2024/01/07 04:28:35;;;;;;;9.05;5.40;;;;;;;;;;5090600;28;20464;-69
2024/01/07 04:31:01;;;;;;;15.30;5.13;;;;;;;;;;5076357;28;20029;-68
2024/01/07 04:33:27;;;;;;;17.38;5.97;;;;;;;;;;5083276;28;20032;-69
2024/01/07 04:35:52;;;;;;;18.38;5.50;;;;;;;;;;5076549;28;20471;-68
2024/01/07 04:38:17;;;;;;;21.17;5.13;;;;;;;;;;5089455;28;20031;-68
2024/01/07 04:40:43;;;;;;;12.95;4.53;;;;;;;;;;5085131;28;20040;-68
2024/01/07 04:43:08;;;;;;;13.43;5.32;;;;;;;;;;5066195;28;20497;-68
2024/01/07 04:45:33;;;;;;;10.95;4.95;;;;;;;;;;5087092;28;20047;-67
2024/01/07 04:47:59;;;;;;;13.20;5.18;;;;;;;;;;5090098;28;20032;-68
2024/01/07 04:50:24;;;;;;;13.82;5.95;;;;;;;;;;5078272;28;20024;-68
2024/01/07 04:52:50;;;;;;;17.15;6.13;;;;;;;;;;5073725;28;20081;-68
2024/01/07 04:55:15;;;;;;;22.77;6.50;;;;;;;;;;5075693;28;20395;-68
2024/01/07 04:57:40;;;;;;;17.90;5.45;;;;;;;;;;5084995;28;20048;-68
2024/01/07 05:00:06;;;;;;;20.23;4.82;;;;;;;;;;5071780;28;20044;-67
2024/01/07 05:02:31;;;;;;;14.93;6.00;;;;;;;;;;5089305;28;20115;-68
2024/01/07 05:04:57;;;;;;;13.73;6.47;;;;;;;;;;5079412;28;20041;-68
2024/01/07 05:07:22;;;;;;;23.75;6.07;;;;;;;;;;5052675;28;20048;-68
2024/01/07 05:09:47;;;;;;;18.88;5.82;;;;;;;;;;5070217;28;20123;-68
2024/01/07 05:12:13;;;;;;;17.05;5.68;;;;;;;;;;5087372;28;20725;-69
2024/01/07 05:14:38;;;;;;;18.60;5.97;;;;;;;;;;5070773;28;20594;-68
2024/01/07 05:17:03;;;;;;;10.98;5.65;;;;;;;;;;5089430;28;20046;-68
2024/01/07 05:19:29;;;;;;;29.35;6.30;;;;;;;;;;5064446;28;20025;-70
2024/01/07 05:21:55;;;;;;;14.32;6.07;;;;;;;;;;5070937;28;20503;-69
2024/01/07 05:24:20;;;;;;;16.42;5.53;;;;;;;;;;5075786;28;20045;-69
2024/01/07 05:26:45;;;;;;;22.45;5.93;;;;;;;;;;5073628;28;20095;-69
2024/01/07 05:29:14;;;;;;;13.65;5.43;;;;;;;;;;5080194;28;20111;-69
2024/01/07 05:31:40;;;;;;;14.90;6.57;;;;;;;;;;5074461;28;20037;-70
2024/01/07 05:34:05;;;;;;;22.90;5.78;;;;;;;;;;5083822;28;20058;-69
2024/01/07 05:36:30;;;;;;;19.95;6.15;;;;;;;;;;5085972;28;20387;-69
2024/01/07 05:38:56;;;;;;;18.42;6.40;;;;;;;;;;5087559;28;20048;-68
2024/01/07 05:41:21;;;;;;;17.25;5.88;;;;;;;;;;5082922;28;20033;-70
2024/01/07 05:43:47;;;;;;;17.45;6.28;;;;;;;;;;5071330;28;20044;-69
2024/01/07 05:46:12;;;;;;;18.15;5.97;;;;;;;;;;5072084;28;20040;-69
2024/01/07 05:48:45;;;;;;;24.17;5.93;;;;;;;;;;5084308;28;20052;-70
2024/01/07 05:51:11;;;;;;;14.80;7.43;;;;;;;;;;5063440;28;20028;-69
2024/01/07 05:53:36;;;;;;;19.38;6.20;;;;;;;;;;5058673;28;20044;-70
2024/01/07 05:56:02;;;;;;;27.98;7.80;;;;;;;;;;5081608;28;20044;-69
2024/01/07 05:58:28;;;;;;;23.90;6.38;;;;;;;;;;5073817;28;20078;-69
2024/01/07 06:00:53;;;;;;;25.33;6.05;;;;;;;;;;5071539;28;20044;-69
2024/01/07 06:03:19;;;;;;;25.83;6.32;;;;;;;;;;5075196;28;20035;-69
2024/01/07 06:05:44;;;;;;;18.52;6.78;;;;;;;;;;5070980;28;20086;-69
2024/01/07 06:08:10;;;;;;;12.82;5.20;;;;;;;;;;5080442;28;20047;-70
2024/01/07 06:10:35;;;;;;;17.60;6.45;;;;;;;;;;5070962;28;20021;-69
2024/01/07 06:13:01;;;;;;;18.17;6.20;;;;;;;;;;5071958;28;20119;-70
2024/01/07 06:15:26;;;;;;;19.00;7.40;;;;;;;;;;5075869;28;20033;-70
2024/01/07 06:17:51;;;;;;;19.45;7.30;;;;;;;;;;5080922;28;20047;-69
2024/01/07 06:20:17;;;;;;;29.13;6.50;;;;;;;;;;5074355;28;20041;-70
2024/01/07 06:22:43;;;;;;;14.27;6.35;;;;;;;;;;5081785;28;20105;-69
2024/01/07 06:25:08;;;;;;;19.90;6.53;;;;;;;;;;5071056;28;20059;-69
2024/01/07 06:27:33;;;;;;;28.20;6.68;;;;;;;;;;5087553;28;20032;-70
2024/01/07 06:29:59;;;;;;;15.02;6.30;;;;;;;;;;5054501;28;20064;-70
2024/01/07 06:32:25;;;;;;;20.52;6.45;;;;;;;;;;5087874;28;20030;-70
2024/01/07 06:34:50;;;;;;;17.58;6.32;;;;;;;;;;5078060;28;20031;-69
2024/01/07 06:37:15;;;;;;;22.90;6.78;;;;;;;;;;5078712;28;20040;-68
2024/01/07 06:39:41;;;;;;;21.98;6.15;;;;;;;;;;5076551;28;20066;-68
2024/01/07 06:42:06;;;;;;;17.13;6.60;;;;;;;;;;5086250;28;20020;-68
2024/01/07 06:44:31;;;;;;;22.45;6.90;;;;;;;;;;5077898;28;20041;-69
2024/01/07 06:46:57;;;;;;;23.65;7.18;;;;;;;;;;5083708;28;20032;-69
2024/01/07 06:49:22;;;;;;;15.68;5.85;;;;;;;;;;5079775;28;20040;-70
2024/01/07 06:51:47;;;;;;;15.65;6.05;;;;;;;;;;5080568;28;20052;-69
2024/01/07 06:54:13;;;;;;;26.10;6.05;;;;;;;;;;5075067;28;20029;-69
2024/01/07 06:56:38;;;;;;;20.17;6.10;;;;;;;;;;5078874;28;20045;-70
2024/01/07 06:59:03;;;;;;;17.63;6.30;;;;;;;;;;5072337;28;20032;-70
2024/01/07 07:01:29;;;;;;;9.13;5.50;;;;;;;;;;5072774;28;20021;-70
2024/01/07 07:03:54;;;;;;;18.70;6.30;;;;;;;;;;5074730;28;20609;-70
2024/01/07 07:06:19;;;;;;;14.43;5.53;;;;;;;;;;5078654;28;20450;-70
2024/01/07 07:08:45;;;;;;;14.90;6.70;;;;;;;;;;5083748;28;20356;-69
2024/01/07 07:11:11;;;;;;;15.65;6.30;;;;;;;;;;5072765;28;20032;-69
2024/01/07 07:13:37;;;;;;;21.48;5.75;;;;;;;;;;5072974;28;20043;-70
2024/01/07 07:16:02;;;;;;;21.13;5.43;;;;;;;;;;5079682;28;20032;-69
2024/01/07 07:18:28;;;;;;;27.10;6.60;;;;;;;;;;5078305;28;20024;-70
2024/01/07 07:20:53;;;;;;;16.90;5.55;;;;;;;;;;5076545;28;20476;-69
2024/01/07 07:23:18;;;;;;;15.50;5.47;;;;;;;;;;5080921;28;20039;-69
2024/01/07 07:25:44;;;;;;;24.25;5.97;;;;;;;;;;5081321;28;20048;-69
2024/01/07 07:28:09;;;;;;;19.48;5.53;;;;;;;;;;5064113;28;20052;-68
2024/01/07 07:30:34;;;;;;;13.10;5.18;;;;;;;;;;5079740;28;20032;-69
2024/01/07 07:33:00;;;;;;;17.75;6.03;;;;;;;;;;5068348;28;20124;-69
2024/01/07 07:35:25;;;;;;;19.98;6.35;;;;;;;;;;5078258;28;20157;-69
2024/01/07 07:37:50;;;;;;;15.70;4.95;;;;;;;;;;5088606;28;20422;-69
2024/01/07 07:40:16;;;;;;;18.45;5.40;;;;;;;;;;5062614;28;20032;-69
2024/01/07 07:42:41;;;;;;;13.88;5.60;;;;;;;;;;5080237;28;20041;-68
2024/01/07 07:45:07;;;;;;;13.27;5.47;;;;;;;;;;5079372;28;20043;-68
2024/01/07 07:47:32;;;;;;;17.63;6.00;;;;;;;;;;5081812;28;20035;-68
2024/01/07 07:49:58;;;;;;;16.48;5.78;;;;;;;;;;5056174;28;20043;-68
2024/01/07 07:52:25;;;;;;;14.50;5.00;;;;;;;;;;5078202;28;20025;-69
2024/01/07 07:54:52;;;;;;;11.68;5.07;;;;;;;;;;5075711;28;20042;-69
2024/01/07 07:57:17;;;;;;;13.70;5.05;;;;;;;;;;5086459;28;20047;-68
2024/01/07 07:59:42;;;;;;;17.25;5.90;;;;;;;;;;5076453;28;20565;-68
2024/01/07 08:02:08;;;;;;;14.10;5.70;;;;;;;;;;5076761;28;20036;-68
2024/01/07 08:04:33;;;;;;;17.67;5.25;;;;;;;;;;5078164;28;20476;-68
2024/01/07 08:07:00;;;;;;;14.73;5.68;;;;;;;;;;5079848;28;20036;-68
2024/01/07 08:09:26;;;;;;;17.10;5.25;;;;;;;;;;5078998;28;20055;-68
2024/01/07 08:11:51;;;;;;;12.55;4.95;;;;;;;;;;5072715;28;20411;-68
2024/01/07 08:14:16;;;;;;;16.10;5.82;;;;;;;;;;5076131;28;20037;-68
2024/01/07 08:16:42;;;;;;;11.90;5.30;;;;;;;;;;5081702;28;20025;-68
2024/01/07 08:19:07;;;;;;;13.35;4.57;;;;;;;;;;5072496;28;20039;-68
2024/01/07 08:21:32;;;;;;;23.70;5.47;;;;;;;;;;5072711;28;20506;-68
2024/01/07 08:23:58;;;;;;;19.38;5.50;;;;;;;;;;5054102;28;20387;-68
2024/01/07 08:26:24;;;;;;;18.00;4.75;;;;;;;;;;5079534;28;20506;-68
2024/01/07 08:28:49;;;;;;;14.63;5.75;;;;;;;;;;5082618;28;20051;-68
2024/01/07 08:31:14;;;;;;;15.82;4.97;;;;;;;;;;5075719;28;20033;-68
2024/01/07 08:33:40;;;;;;;16.70;5.55;;;;;;;;;;5078932;28;20387;-68
2024/01/07 08:36:05;;;;;;;21.63;5.03;;;;;;;;;;5077465;28;20032;-68
2024/01/07 08:38:30;;;;;;;9.95;4.97;;;;;;;;;;5084288;28;20035;-69
2024/01/07 08:40:56;;;;;;;19.50;5.95;;;;;;;;;;5076267;28;20040;-67
2024/01/07 08:43:21;;;;;;;13.73;5.55;;;;;;;;;;5086037;28;20038;-69
2024/01/07 08:45:47;;;;;;;15.32;5.57;;;;;;;;;;5076499;28;20020;-69
2024/01/07 08:48:12;;;;;;;14.65;5.90;;;;;;;;;;5073600;28;20115;-68
2024/01/07 08:50:38;;;;;;;16.73;4.93;;;;;;;;;;5072006;28;20063;-67
2024/01/07 08:53:04;;;;;;;13.73;4.18;;;;;;;;;;5072136;28;20074;-68
2024/01/07 08:55:30;;;;;;;9.57;4.57;;;;;;;;;;5071901;28;20067;-68
2024/01/07 08:57:55;;;;;;;15.27;5.43;;;;;;;;;;5073381;28;20436;-69
2024/01/07 09:00:25;;;;;;;11.73;4.13;;;;;;;;;;5071634;28;20053;-68
2024/01/07 09:02:51;;;;;;;9.68;4.75;;;;;;;;;;5071985;28;20044;-68
2024/01/07 09:05:16;;;;;;;15.73;4.25;;;;;;;;;;5070912;28;20032;-69
2024/01/07 09:07:41;;;;;;;11.48;5.05;;;;;;;;;;5072412;28;20028;-69
2024/01/07 09:10:10;;;;;;;13.07;5.30;;;;;;;;;;5071260;28;20040;-68
2024/01/07 09:12:36;;;;;;;14.68;4.68;;;;;;;;;;5073208;28;20031;-69
2024/01/07 09:15:02;;;;;;;7.70;4.22;;;;;;;;;;5073054;28;20078;-69
2024/01/07 09:17:27;;;;;;;12.45;5.25;;;;;;;;;;5073887;28;20033;-68
2024/01/07 09:19:52;;;;;;;12.48;4.65;;;;;;;;;;5076791;28;20032;-67
2024/01/07 09:22:18;;;;;;;6.00;3.45;;;;;;;;;;5077127;28;20033;-68
2024/01/07 09:24:43;;;;;;;9.93;3.85;;;;;;;;;;5085015;28;20419;-68
2024/01/07 09:27:08;;;;;;;6.10;3.53;;;;;;;;;;5076198;28;20419;-68
2024/01/07 09:29:34;;;;;;;12.75;3.28;;;;;;;;;;5076418;28;20033;-68
2024/01/07 09:31:59;;;;;;;16.73;3.45;;;;;;;;;;5074214;28;20037;-68
2024/01/07 09:34:24;;;;;;;7.18;2.65;;;;;;;;;;5074957;28;20116;-69
2024/01/07 09:36:50;;;;;;;7.25;2.80;;;;;;;;;;5090104;28;20032;-69
2024/01/07 09:39:15;;;;;;;15.77;3.00;;;;;;;;;;5085729;28;20044;-70
2024/01/07 09:41:40;;;;;;;6.72;3.28;;;;;;;;;;5087730;28;20073;-70
2024/01/07 09:44:06;;;;;;;8.20;2.85;;;;;;;;;;5060222;28;20033;-70
2024/01/07 09:46:32;;;;;;;10.82;2.95;;;;;;;;;;5068362;28;20036;-70
2024/01/07 09:48:57;;;;;;;7.95;2.65;;;;;;;;;;5080298;28;20495;-71
2024/01/07 09:51:23;;;;;;;5.55;2.60;;;;;;;;;;5073961;28;20122;-69
2024/01/07 09:53:54;;;;;;;6.57;2.47;;;;;;;;;;5076579;28;20416;-68
2024/01/07 09:56:26;;;;;;;6.47;2.40;;;;;;;;;;5082308;28;20055;-67
2024/01/07 09:58:51;;;;;;;6.65;2.92;;;;;;;;;;5067310;28;20043;-68
2024/01/07 10:01:20;;;;;;;7.45;2.95;;;;;;;;;;5071118;28;20036;-70
2024/01/07 10:03:45;;;;;;;9.23;2.42;;;;;;;;;;5074073;28;20059;-70
2024/01/07 10:06:11;;;;;;;6.30;2.30;;;;;;;;;;5055228;28;20071;-70
2024/01/07 10:08:37;;;;;;;8.00;2.42;;;;;;;;;;5062118;28;20043;-70
2024/01/07 10:11:04;;;;;;;6.97;2.88;;;;;;;;;;5070645;28;20162;-69
2024/01/07 10:13:30;;;;;;;7.72;2.80;;;;;;;;;;5072645;28;20093;-70
2024/01/07 10:15:55;;;;;;;9.48;2.28;;;;;;;;;;5069039;28;20392;-70
2024/01/07 10:18:21;;;;;;;13.20;2.38;;;;;;;;;;5070114;28;20032;-69
2024/01/07 10:20:46;;;;;;;16.10;2.65;;;;;;;;;;5070338;28;20051;-70
2024/01/07 10:23:12;;;;;;;5.15;2.50;;;;;;;;;;5069924;28;20032;-68
2024/01/07 10:25:37;;;;;;;5.57;2.10;;;;;;;;;;5069871;28;20039;-67
2024/01/07 10:28:03;;;;;;;3.78;1.88;;;;;;;;;;5070270;28;20032;-70
2024/01/07 10:30:29;;;;;;;7.45;1.33;;;;;;;;;;5069167;28;20028;-70
2024/01/07 10:32:58;;;;;;;7.32;2.10;;;;;;;;;;5052994;28;20059;-71
2024/01/07 10:35:28;;;;;;;7.18;2.20;;;;;;;;;;5070268;28;20471;-70
2024/01/07 10:37:53;;;;;;;3.35;1.58;;;;;;;;;;5066079;28;20040;-70
2024/01/07 10:40:18;;;;;;;5.70;1.58;;;;;;;;;;5071427;28;20511;-70
2024/01/07 10:42:44;;;;;;;3.13;1.00;;;;;;;;;;5071980;28;20444;-69
2024/01/07 10:45:10;;;;;;;2.95;1.45;;;;;;;;;;5072148;28;20039;-69
2024/01/07 10:47:36;;;;;;;5.47;1.25;;;;;;;;;;5052557;28;20028;-69
2024/01/07 10:50:02;;;;;;;2.28;1.20;;;;;;;;;;5072377;28;20040;-69
2024/01/07 10:52:28;;;;;;;2.22;1.40;;;;;;;;;;5069587;28;20032;-69
2024/01/07 10:54:56;;;;;;;10.43;1.50;;;;;;;;;;5079253;28;20040;-69
2024/01/07 10:57:37;;;;;;;4.70;1.23;;;;;;;;;;5055971;28;20048;-69
2024/01/07 11:00:07;;;;;;;1.90;0.93;;;;;;;;;;5061486;28;20108;-69
2024/01/07 11:02:39;;;;;;;1.30;0.77;;;;;;;;;;5076026;28;20606;-68
2024/01/07 11:05:27;;;;;;;3.00;1.15;;;;;;;;;;5059584;28;20024;-69
2024/01/07 11:08:36;;;;;;;5.18;1.25;;;;;;;;;;5058520;28;20663;-68
2024/01/07 11:11:14;;;;;;;5.75;1.23;;;;;;;;;;5074218;28;20484;-70
2024/01/07 11:13:39;;;;;;;2.03;0.88;;;;;;;;;;5049609;28;20036;-68
2024/01/07 11:16:11;;;;;;;3.67;1.10;;;;;;;;;;5080503;28;20039;-69
2024/01/07 11:18:51;;;;;;;7.47;1.05;;;;;;;;;;5052184;28;20033;-69
2024/01/07 11:21:26;;;;;;;1.35;0.73;;;;;;;;;;5067989;28;20127;-69
2024/01/07 11:23:52;;;;;;;3.13;0.85;;;;;;;;;;5074299;28;20178;-68
2024/01/07 11:26:18;;;;;;;1.27;0.80;;;;;;;;;;5073319;28;20040;-69
2024/01/07 11:28:57;;;;;;;2.58;1.45;;;;;;;;;;5060976;28;20040;-70
2024/01/07 11:31:50;;;;;;;3.53;0.70;;;;;;;;;;5069662;28;20052;-68
2024/01/07 11:34:43;;;;;;;6.35;1.55;;;;;;;;;;5076129;28;20048;-69
2024/01/07 11:37:11;;;;;;;1.15;0.60;;;;;;;;;;5068741;28;20056;-68
2024/01/07 11:39:36;;;;;;;1.55;0.70;;;;;;;;;;5071236;28;20048;-69
2024/01/07 11:42:03;;;;;;;1.27;0.70;;;;;;;;;;5070754;28;20063;-70
2024/01/07 11:44:29;;;;;;;1.35;1.00;;;;;;;;;;5059613;28;20044;-69
2024/01/07 11:46:55;;;;;;;4.47;0.90;;;;;;;;;;5074667;28;20036;-69
2024/01/07 11:49:20;;;;;;;5.57;0.93;;;;;;;;;;5076451;28;20682;-68
2024/01/07 11:51:46;;;;;;;10.15;1.15;;;;;;;;;;5074594;28;20040;-68
2024/01/07 11:54:11;;;;;;;4.13;1.10;;;;;;;;;;5058080;28;20062;-69
2024/01/07 11:56:37;;;;;;;5.22;0.95;;;;;;;;;;5089206;28;20048;-68
2024/01/07 11:59:03;;;;;;;1.42;0.80;;;;;;;;;;5076098;28;20036;-68
2024/01/07 12:01:28;;;;;;;4.55;0.85;;;;;;;;;;5074087;28;20097;-68
2024/01/07 12:03:54;;;;;;;3.00;1.17;;;;;;;;;;5077167;28;20032;-68
2024/01/07 12:06:19;;;;;;;2.67;0.70;;;;;;;;;;5057054;28;20070;-68
2024/01/07 12:08:45;;;;;;;3.92;0.98;;;;;;;;;;5089129;28;20035;-68
2024/01/07 12:11:12;;;;;;;3.10;0.75;;;;;;;;;;5063160;28;20024;-68
2024/01/07 12:13:37;;;;;;;1.05;0.68;;;;;;;;;;5060801;28;20044;-68
2024/01/07 12:16:04;;;;;;;3.50;0.80;;;;;;;;;;5074763;28;20082;-69
2024/01/07 12:18:29;;;;;;;5.63;1.00;;;;;;;;;;5082402;28;20024;-69
2024/01/07 12:20:57;;;;;;;4.65;0.98;;;;;;;;;;5082843;28;20036;-69
2024/01/07 12:23:22;;;;;;;1.85;0.68;;;;;;;;;;5062062;28;20638;-68
2024/01/07 12:25:47;;;;;;;5.63;1.02;;;;;;;;;;5084239;28;20097;-68
2024/01/07 12:28:13;;;;;;;2.63;0.65;;;;;;;;;;5090636;28;20123;-68
2024/01/07 12:30:38;;;;;;;1.20;0.50;;;;;;;;;;5060990;28;20120;-68
2024/01/07 12:33:07;;;;;;;1.15;0.52;;;;;;;;;;5062650;28;20455;-69
2024/01/07 12:35:32;;;;;;;1.75;0.73;;;;;;;;;;5086562;28;20111;-68
2024/01/07 12:37:59;;;;;;;2.10;0.82;;;;;;;;;;5092080;28;20123;-69
2024/01/07 12:40:26;;;;;;;2.83;0.88;;;;;;;;;;5087575;28;20051;-69
2024/01/07 12:42:52;;;;;;;4.40;0.80;;;;;;;;;;5081743;28;20032;-70
2024/01/07 12:45:17;;;;;;;4.15;1.35;;;;;;;;;;5079431;28;20116;-70
2024/01/07 12:47:43;;;;;;;1.60;0.80;;;;;;;;;;5058308;28;20036;-71
2024/01/07 12:50:12;;;;;;;1.10;0.60;;;;;;;;;;5085814;28;20040;-67
2024/01/07 12:52:39;;;;;;;1.20;0.70;;;;;;;;;;5059782;28;20033;-67
2024/01/07 12:55:04;;;;;;;0.60;0.60;;;;;;;;;;5083459;28;20051;-68
2024/01/07 12:57:30;;;;;;;1.23;0.70;;;;;;;;;;5063888;28;20500;-68
2024/01/07 12:59:55;;;;;;;5.38;0.80;;;;;;;;;;5081928;28;20044;-68
2024/01/07 13:02:20;;;;;;;0.85;0.60;;;;;;;;;;5087559;28;20032;-68
2024/01/07 13:04:46;;;;;;;8.90;0.82;;;;;;;;;;5087972;28;20036;-69
2024/01/07 13:07:11;;;;;;;0.63;0.47;;;;;;;;;;5079813;28;20032;-69
2024/01/07 13:09:37;;;;;;;1.63;0.63;;;;;;;;;;5076364;28;20045;-70
2024/01/07 13:12:04;;;;;;;1.17;0.80;;;;;;;;;;5071782;28;20044;-69
2024/01/07 13:14:29;;;;;;;3.30;0.85;;;;;;;;;;5075975;28;20133;-69
2024/01/07 13:16:54;;;;;;;0.98;0.60;;;;;;;;;;5071503;28;20064;-70
2024/01/07 13:19:20;;;;;;;2.22;0.68;;;;;;;;;;5072200;28;20032;-68
2024/01/07 13:21:45;;;;;;;4.97;0.85;;;;;;;;;;5076054;28;20119;-69
2024/01/07 13:24:11;;;;;;;0.80;0.60;;;;;;;;;;5073753;28;20033;-68
2024/01/07 13:26:36;;;;;;;1.42;0.52;;;;;;;;;;5075379;28;20039;-68
2024/01/07 13:29:03;;;;;;;0.85;0.60;;;;;;;;;;5081189;28;20072;-69
2024/01/07 13:31:28;;;;;;;0.85;0.70;;;;;;;;;;5078283;28;20032;-68
2024/01/07 13:33:54;;;;;;;1.67;0.75;;;;;;;;;;5084119;28;20585;-69
2024/01/07 13:36:19;;;;;;;8.05;0.93;;;;;;;;;;5052479;28;21682;-69
2024/01/07 13:38:46;;;;;;;1.80;1.00;;;;;;;;;;5054939;28;20487;-70
2024/01/07 13:41:11;;;;;;;3.17;1.00;;;;;;;;;;5072028;28;20044;-68
2024/01/07 13:43:40;;;;;;;1.73;1.05;;;;;;;;;;5077483;28;20036;-69
2024/01/07 13:46:07;;;;;;;2.33;0.60;;;;;;;;;;5080830;28;20074;-66
2024/01/07 13:48:34;;;;;;;0.82;0.55;;;;;;;;;;5071774;28;20079;-69
2024/01/07 13:50:59;;;;;;;9.48;1.23;;;;;;;;;;5075298;28;20118;-68
2024/01/07 13:53:25;;;;;;;1.48;0.50;;;;;;;;;;5070917;28;20453;-68
2024/01/07 13:55:50;;;;;;;0.50;0.47;;;;;;;;;;5073750;28;20115;-68
2024/01/07 13:58:16;;;;;;;5.18;1.40;;;;;;;;;;5075180;28;20044;-68
2024/01/07 14:00:41;;;;;;;2.58;1.10;;;;;;;;;;5067888;28;20457;-68
2024/01/07 14:03:07;;;;;;;6.55;1.00;;;;;;;;;;5071093;28;20472;-69
2024/01/07 14:05:32;;;;;;;1.75;0.77;;;;;;;;;;5073738;28;20032;-68
2024/01/07 14:07:57;;;;;;;4.40;0.77;;;;;;;;;;5074132;28;20031;-68
2024/01/07 14:10:23;;;;;;;0.30;0.30;;;;;;;;;;5072005;28;20075;-68
2024/01/07 14:12:48;;;;;;;4.45;1.10;;;;;;;;;;5071735;28;20112;-68
2024/01/07 14:15:13;;;;;;;0.90;0.70;;;;;;;;;;5072188;28;20123;-68
2024/01/07 14:17:39;;;;;;;2.78;1.60;;;;;;;;;;5069395;28;20119;-67
2024/01/07 14:20:06;;;;;;;4.35;0.80;;;;;;;;;;5069998;28;20040;-68
2024/01/07 14:22:31;;;;;;;5.38;1.00;;;;;;;;;;5070487;28;20036;-67
2024/01/07 14:24:57;;;;;;;0.93;0.57;;;;;;;;;;5069253;28;20032;-68
2024/01/07 14:27:22;;;;;;;0.60;0.50;;;;;;;;;;5069557;28;20468;-68
2024/01/07 14:29:47;;;;;;;0.55;0.50;;;;;;;;;;5079926;28;20464;-67